sensor_id;sensor_type;location;lat;lon;timestamp;noise_LAeq;noise_LA_min;noise_LA_max;noise_LA01;noise_LA95
41704;Laerm;861;48.808;9.006;2024-02-21T00:01:22;37.19;35.95;38.21;;
41704;Laerm;861;48.808;9.006;2024-02-21T00:03:49;37.21;35.88;38.28;;
41704;Laerm;861;48.808;9.006;2024-02-21T00:06:15;37.25;35.91;38.56;;
41704;Laerm;861;48.808;9.006;2024-02-21T00:08:42;37.28;36.10;38.61;;
41704;Laerm;861;48.808;9.006;2024-02-21T00:11:08;37.29;36.13;38.34;;
41704;Laerm;861;48.808;9.006;2024-02-21T00:13:35;37.31;35.86;38.76;;
41704;Laerm;861;48.808;9.006;2024-02-21T00:16:02;37.31;35.86;38.39;;
41704;Laerm;861;48.808;9.006;2024-02-21T00:18:29;37.28;35.67;38.50;;
41704;Laerm;861;48.808;9.006;2024-02-21T00:20:55;37.29;35.91;38.52;;
41704;Laerm;861;48.808;9.006;2024-02-21T00:23:22;37.27;35.99;38.48;;
41704;Laerm;861;48.808;9.006;2024-02-21T00:25:48;37.25;36.01;38.50;;
41704;Laerm;861;48.808;9.006;2024-02-21T00:28:15;37.25;36.12;38.42;;
41704;Laerm;861;48.808;9.006;2024-02-21T00:30:42;37.25;36.04;38.52;;
41704;Laerm;861;48.808;9.006;2024-02-21T00:33:08;37.26;36.02;38.54;;
41704;Laerm;861;48.808;9.006;2024-02-21T00:35:35;37.23;35.94;38.51;;
41704;Laerm;861;48.808;9.006;2024-02-21T00:38:01;37.18;35.96;38.26;;
41704;Laerm;861;48.808;9.006;2024-02-21T00:40:29;37.18;35.83;38.27;;
41704;Laerm;861;48.808;9.006;2024-02-21T00:42:56;37.17;35.97;38.35;;
41704;Laerm;861;48.808;9.006;2024-02-21T00:45:23;37.17;35.97;38.44;;
41704;Laerm;861;48.808;9.006;2024-02-21T00:47:49;37.11;35.78;38.33;;
41704;Laerm;861;48.808;9.006;2024-02-21T00:50:16;37.09;35.83;38.21;;
41704;Laerm;861;48.808;9.006;2024-02-21T00:52:43;37.06;35.75;38.22;;
41704;Laerm;861;48.808;9.006;2024-02-21T00:55:10;37.09;35.89;38.33;;
41704;Laerm;861;48.808;9.006;2024-02-21T00:57:37;37.10;35.55;38.29;;
41704;Laerm;861;48.808;9.006;2024-02-21T01:00:05;37.20;35.85;38.31;;
41704;Laerm;861;48.808;9.006;2024-02-21T01:02:32;37.26;36.10;38.39;;
41704;Laerm;861;48.808;9.006;2024-02-21T01:04:59;37.20;36.04;38.32;;
41704;Laerm;861;48.808;9.006;2024-02-21T01:07:25;37.26;35.99;38.39;;
41704;Laerm;861;48.808;9.006;2024-02-21T01:09:55;37.35;35.89;38.64;;
41704;Laerm;861;48.808;9.006;2024-02-21T01:12:22;37.40;36.17;38.63;;
41704;Laerm;861;48.808;9.006;2024-02-21T01:14:49;37.46;35.99;38.54;;
41704;Laerm;861;48.808;9.006;2024-02-21T01:17:16;37.45;36.27;38.52;;
41704;Laerm;861;48.808;9.006;2024-02-21T01:19:42;37.44;36.16;38.65;;
41704;Laerm;861;48.808;9.006;2024-02-21T01:22:09;37.52;36.26;38.67;;
41704;Laerm;861;48.808;9.006;2024-02-21T01:24:36;37.57;36.43;38.66;;
41704;Laerm;861;48.808;9.006;2024-02-21T01:27:02;37.59;36.09;38.74;;
41704;Laerm;861;48.808;9.006;2024-02-21T01:29:29;37.65;36.40;38.88;;
41704;Laerm;861;48.808;9.006;2024-02-21T01:31:55;37.74;36.45;38.92;;
41704;Laerm;861;48.808;9.006;2024-02-21T01:34:22;37.75;36.48;38.96;;
41704;Laerm;861;48.808;9.006;2024-02-21T01:36:49;37.70;36.54;38.89;;
41704;Laerm;861;48.808;9.006;2024-02-21T01:39:15;37.73;36.56;39.15;;
41704;Laerm;861;48.808;9.006;2024-02-21T01:41:42;37.73;36.55;38.87;;
41704;Laerm;861;48.808;9.006;2024-02-21T01:44:08;37.72;36.40;38.96;;
41704;Laerm;861;48.808;9.006;2024-02-21T01:46:36;37.72;36.44;38.88;;
41704;Laerm;861;48.808;9.006;2024-02-21T01:49:03;37.75;36.48;39.01;;
41704;Laerm;861;48.808;9.006;2024-02-21T01:51:32;37.71;36.51;39.05;;
41704;Laerm;861;48.808;9.006;2024-02-21T01:53:59;37.66;36.41;38.86;;
41704;Laerm;861;48.808;9.006;2024-02-21T01:56:26;37.66;36.35;38.83;;
41704;Laerm;861;48.808;9.006;2024-02-21T01:58:54;37.61;36.40;38.78;;
41704;Laerm;861;48.808;9.006;2024-02-21T02:01:22;37.63;36.26;38.87;;
41704;Laerm;861;48.808;9.006;2024-02-21T02:03:50;37.63;36.11;38.74;;
41704;Laerm;861;48.808;9.006;2024-02-21T02:06:17;37.66;36.37;38.87;;
41704;Laerm;861;48.808;9.006;2024-02-21T02:08:45;37.63;36.32;38.70;;
41704;Laerm;861;48.808;9.006;2024-02-21T02:11:14;37.57;36.06;38.98;;
41704;Laerm;861;48.808;9.006;2024-02-21T02:13:41;37.51;36.26;38.95;;
41704;Laerm;861;48.808;9.006;2024-02-21T02:16:08;37.47;36.26;38.59;;
41704;Laerm;861;48.808;9.006;2024-02-21T02:18:35;37.47;36.23;38.58;;
41704;Laerm;861;48.808;9.006;2024-02-21T02:21:04;37.49;36.11;38.68;;
41704;Laerm;861;48.808;9.006;2024-02-21T02:23:33;37.51;36.27;38.61;;
41704;Laerm;861;48.808;9.006;2024-02-21T02:26:00;37.50;36.03;38.68;;
41704;Laerm;861;48.808;9.006;2024-02-21T02:28:27;37.56;36.39;38.60;;
41704;Laerm;861;48.808;9.006;2024-02-21T02:30:54;37.62;36.25;38.90;;
41704;Laerm;861;48.808;9.006;2024-02-21T02:33:21;37.53;36.08;38.64;;
41704;Laerm;861;48.808;9.006;2024-02-21T02:35:47;37.37;35.93;38.65;;
41704;Laerm;861;48.808;9.006;2024-02-21T02:38:14;37.16;35.91;38.27;;
41704;Laerm;861;48.808;9.006;2024-02-21T02:40:42;36.99;35.63;38.15;;
41704;Laerm;861;48.808;9.006;2024-02-21T02:43:09;36.92;35.63;38.04;;
41704;Laerm;861;48.808;9.006;2024-02-21T02:45:36;36.88;35.53;37.95;;
41704;Laerm;861;48.808;9.006;2024-02-21T02:48:03;36.80;35.46;37.93;;
41704;Laerm;861;48.808;9.006;2024-02-21T02:50:30;36.59;35.44;37.70;;
41704;Laerm;861;48.808;9.006;2024-02-21T02:52:57;36.43;35.15;37.65;;
41704;Laerm;861;48.808;9.006;2024-02-21T02:55:24;36.40;35.00;37.62;;
41704;Laerm;861;48.808;9.006;2024-02-21T02:57:51;36.28;35.08;37.42;;
41704;Laerm;861;48.808;9.006;2024-02-21T03:00:18;36.31;35.02;37.51;;
41704;Laerm;861;48.808;9.006;2024-02-21T03:02:49;36.19;34.99;37.45;;
41704;Laerm;861;48.808;9.006;2024-02-21T03:05:20;36.27;34.96;37.35;;
41704;Laerm;861;48.808;9.006;2024-02-21T03:07:49;36.32;35.20;37.50;;
41704;Laerm;861;48.808;9.006;2024-02-21T03:10:16;36.36;35.00;37.52;;
41704;Laerm;861;48.808;9.006;2024-02-21T03:12:43;36.47;35.13;37.70;;
41704;Laerm;861;48.808;9.006;2024-02-21T03:15:10;36.40;35.00;37.55;;
41704;Laerm;861;48.808;9.006;2024-02-21T03:17:36;36.54;35.27;37.70;;
41704;Laerm;861;48.808;9.006;2024-02-21T03:20:05;36.45;35.32;37.67;;
41704;Laerm;861;48.808;9.006;2024-02-21T03:22:32;36.48;35.07;37.67;;
41704;Laerm;861;48.808;9.006;2024-02-21T03:24:59;36.47;34.88;37.75;;
41704;Laerm;861;48.808;9.006;2024-02-21T03:27:25;36.51;35.11;37.67;;
41704;Laerm;861;48.808;9.006;2024-02-21T03:29:52;36.62;35.16;37.69;;
41704;Laerm;861;48.808;9.006;2024-02-21T03:32:18;36.68;35.38;37.75;;
41704;Laerm;861;48.808;9.006;2024-02-21T03:34:45;36.62;35.40;37.78;;
41704;Laerm;861;48.808;9.006;2024-02-21T03:37:12;36.56;35.17;37.93;;
41704;Laerm;861;48.808;9.006;2024-02-21T03:39:40;36.43;35.12;37.64;;
41704;Laerm;861;48.808;9.006;2024-02-21T03:42:07;36.53;35.24;37.77;;
41704;Laerm;861;48.808;9.006;2024-02-21T03:44:34;36.55;35.38;37.79;;
41704;Laerm;861;48.808;9.006;2024-02-21T03:47:01;36.55;35.32;37.69;;
41704;Laerm;861;48.808;9.006;2024-02-21T03:49:27;36.55;35.40;37.68;;
41704;Laerm;861;48.808;9.006;2024-02-21T03:51:55;36.63;35.32;37.80;;
41704;Laerm;861;48.808;9.006;2024-02-21T03:54:22;36.65;35.20;37.88;;
41704;Laerm;861;48.808;9.006;2024-02-21T03:56:49;36.75;35.43;37.94;;
41704;Laerm;861;48.808;9.006;2024-02-21T03:59:16;36.82;35.54;38.00;;
41704;Laerm;861;48.808;9.006;2024-02-21T04:01:42;36.77;35.58;38.08;;
41704;Laerm;861;48.808;9.006;2024-02-21T04:04:11;36.73;35.53;37.82;;
41704;Laerm;861;48.808;9.006;2024-02-21T04:06:46;36.78;35.54;37.96;;
41704;Laerm;861;48.808;9.006;2024-02-21T04:09:13;36.89;35.45;38.11;;
41704;Laerm;861;48.808;9.006;2024-02-21T04:11:39;36.96;35.70;38.23;;
41704;Laerm;861;48.808;9.006;2024-02-21T04:14:06;37.01;35.68;38.21;;
41704;Laerm;861;48.808;9.006;2024-02-21T04:16:34;37.01;35.78;38.34;;
41704;Laerm;861;48.808;9.006;2024-02-21T04:19:00;37.04;35.76;38.21;;
41704;Laerm;861;48.808;9.006;2024-02-21T04:21:28;37.15;35.54;38.49;;
41704;Laerm;861;48.808;9.006;2024-02-21T04:23:55;37.22;35.92;38.32;;
41704;Laerm;861;48.808;9.006;2024-02-21T04:26:21;37.23;35.95;38.36;;
41704;Laerm;861;48.808;9.006;2024-02-21T04:28:48;37.23;35.88;38.47;;
41704;Laerm;861;48.808;9.006;2024-02-21T04:31:15;37.22;36.03;38.41;;
41704;Laerm;861;48.808;9.006;2024-02-21T04:33:41;37.22;35.90;38.43;;
41704;Laerm;861;48.808;9.006;2024-02-21T04:36:07;37.34;35.91;38.54;;
41704;Laerm;861;48.808;9.006;2024-02-21T04:38:34;37.38;35.94;38.75;;
41704;Laerm;861;48.808;9.006;2024-02-21T04:41:00;37.33;36.10;38.41;;
41704;Laerm;861;48.808;9.006;2024-02-21T04:43:27;37.34;35.97;38.42;;
41704;Laerm;861;48.808;9.006;2024-02-21T04:45:55;37.33;35.94;38.47;;
41704;Laerm;861;48.808;9.006;2024-02-21T04:48:22;37.34;35.86;38.59;;
41704;Laerm;861;48.808;9.006;2024-02-21T04:50:48;37.35;35.97;38.49;;
41704;Laerm;861;48.808;9.006;2024-02-21T04:53:15;37.35;36.19;38.53;;
41704;Laerm;861;48.808;9.006;2024-02-21T04:55:42;37.31;35.82;38.43;;
41704;Laerm;861;48.808;9.006;2024-02-21T04:58:09;37.31;36.02;38.53;;
41704;Laerm;861;48.808;9.006;2024-02-21T05:00:35;37.29;36.01;38.54;;
41704;Laerm;861;48.808;9.006;2024-02-21T05:03:02;37.19;35.83;38.59;;
41704;Laerm;861;48.808;9.006;2024-02-21T05:05:29;37.18;35.96;38.42;;
41704;Laerm;861;48.808;9.006;2024-02-21T05:07:55;37.28;35.97;38.51;;
41704;Laerm;861;48.808;9.006;2024-02-21T05:10:22;37.36;36.16;38.49;;
41704;Laerm;861;48.808;9.006;2024-02-21T05:12:49;37.35;36.23;38.58;;
41704;Laerm;861;48.808;9.006;2024-02-21T05:15:16;37.39;36.08;38.79;;
41704;Laerm;861;48.808;9.006;2024-02-21T05:17:42;37.40;35.95;38.54;;
41704;Laerm;861;48.808;9.006;2024-02-21T05:20:10;37.40;36.17;38.76;;
41704;Laerm;861;48.808;9.006;2024-02-21T05:22:37;37.38;36.14;38.63;;
41704;Laerm;861;48.808;9.006;2024-02-21T05:25:03;37.38;36.15;38.92;;
41704;Laerm;861;48.808;9.006;2024-02-21T05:27:30;37.37;36.18;38.60;;
41704;Laerm;861;48.808;9.006;2024-02-21T05:29:57;37.33;36.05;38.61;;
41704;Laerm;861;48.808;9.006;2024-02-21T05:32:25;37.31;36.03;38.53;;
41704;Laerm;861;48.808;9.006;2024-02-21T05:34:52;37.30;35.99;38.55;;
41704;Laerm;861;48.808;9.006;2024-02-21T05:37:19;37.32;36.06;38.59;;
41704;Laerm;861;48.808;9.006;2024-02-21T05:39:45;37.35;36.12;38.62;;
41704;Laerm;861;48.808;9.006;2024-02-21T05:42:12;37.36;36.14;38.51;;
41704;Laerm;861;48.808;9.006;2024-02-21T05:44:38;37.43;36.23;38.70;;
41704;Laerm;861;48.808;9.006;2024-02-21T05:47:05;37.47;36.20;38.68;;
41704;Laerm;861;48.808;9.006;2024-02-21T05:49:37;37.47;35.99;38.58;;
41704;Laerm;861;48.808;9.006;2024-02-21T05:52:04;37.47;36.27;38.75;;
41704;Laerm;861;48.808;9.006;2024-02-21T05:54:32;37.43;36.11;38.63;;
41704;Laerm;861;48.808;9.006;2024-02-21T05:56:59;37.40;35.99;38.52;;
41704;Laerm;861;48.808;9.006;2024-02-21T05:59:25;37.33;36.14;38.71;;
41704;Laerm;861;48.808;9.006;2024-02-21T06:02:00;37.28;36.02;38.78;;
41704;Laerm;861;48.808;9.006;2024-02-21T06:04:29;37.22;35.95;38.30;;
41704;Laerm;861;48.808;9.006;2024-02-21T06:06:56;37.15;35.91;38.25;;
41704;Laerm;861;48.808;9.006;2024-02-21T06:09:22;37.12;35.66;38.38;;
41704;Laerm;861;48.808;9.006;2024-02-21T06:11:49;37.10;35.82;38.30;;
41704;Laerm;861;48.808;9.006;2024-02-21T06:14:15;37.07;35.58;38.20;;
41704;Laerm;861;48.808;9.006;2024-02-21T06:16:44;37.14;35.82;38.23;;
41704;Laerm;861;48.808;9.006;2024-02-21T06:19:10;37.17;35.92;38.39;;
41704;Laerm;861;48.808;9.006;2024-02-21T06:21:38;37.21;35.87;38.40;;
41704;Laerm;861;48.808;9.006;2024-02-21T06:24:05;37.25;36.07;38.30;;
41704;Laerm;861;48.808;9.006;2024-02-21T06:26:31;37.28;36.00;38.55;;
41704;Laerm;861;48.808;9.006;2024-02-21T06:28:58;37.30;35.83;38.65;;
41704;Laerm;861;48.808;9.006;2024-02-21T06:31:27;37.34;35.97;38.77;;
41704;Laerm;861;48.808;9.006;2024-02-21T06:33:53;37.40;36.19;38.71;;
41704;Laerm;861;48.808;9.006;2024-02-21T06:36:20;37.41;36.01;38.63;;
41704;Laerm;861;48.808;9.006;2024-02-21T06:38:47;37.35;36.02;38.68;;
41704;Laerm;861;48.808;9.006;2024-02-21T06:41:18;37.31;36.00;38.50;;
41704;Laerm;861;48.808;9.006;2024-02-21T06:43:48;37.29;35.92;38.65;;
41704;Laerm;861;48.808;9.006;2024-02-21T06:46:29;37.23;36.06;38.55;;
41704;Laerm;861;48.808;9.006;2024-02-21T06:48:58;37.23;36.13;38.54;;
41704;Laerm;861;48.808;9.006;2024-02-21T06:51:26;37.22;35.69;38.60;;
41704;Laerm;861;48.808;9.006;2024-02-21T06:53:54;37.33;36.02;38.55;;
41704;Laerm;861;48.808;9.006;2024-02-21T06:56:24;37.41;35.91;38.68;;
41704;Laerm;861;48.808;9.006;2024-02-21T06:58:57;37.48;36.05;38.72;;
41704;Laerm;861;48.808;9.006;2024-02-21T07:01:27;37.50;36.35;38.72;;
41704;Laerm;861;48.808;9.006;2024-02-21T07:03:53;37.55;36.39;38.72;;
41704;Laerm;861;48.808;9.006;2024-02-21T07:06:20;37.56;36.33;38.72;;
41704;Laerm;861;48.808;9.006;2024-02-21T07:08:47;37.58;36.34;38.73;;
41704;Laerm;861;48.808;9.006;2024-02-21T07:11:13;37.60;36.42;38.69;;
41704;Laerm;861;48.808;9.006;2024-02-21T07:13:40;37.62;36.49;39.15;;
41704;Laerm;861;48.808;9.006;2024-02-21T07:16:08;37.66;36.37;38.86;;
41704;Laerm;861;48.808;9.006;2024-02-21T07:18:35;37.72;36.53;39.05;;
41704;Laerm;861;48.808;9.006;2024-02-21T07:21:01;37.73;36.22;39.01;;
41704;Laerm;861;48.808;9.006;2024-02-21T07:23:28;37.79;36.61;39.01;;
41704;Laerm;861;48.808;9.006;2024-02-21T07:25:54;37.89;36.54;39.47;;
41704;Laerm;861;48.808;9.006;2024-02-21T07:28:21;37.91;36.45;39.01;;
41704;Laerm;861;48.808;9.006;2024-02-21T07:30:48;37.93;36.68;39.30;;
41704;Laerm;861;48.808;9.006;2024-02-21T07:33:14;38.03;36.90;39.21;;
41704;Laerm;861;48.808;9.006;2024-02-21T07:35:41;38.11;36.90;39.20;;
41704;Laerm;861;48.808;9.006;2024-02-21T07:38:08;38.16;36.91;39.28;;
41704;Laerm;861;48.808;9.006;2024-02-21T07:40:39;38.16;36.92;39.34;;
41704;Laerm;861;48.808;9.006;2024-02-21T07:43:05;38.19;36.92;39.52;;
41704;Laerm;861;48.808;9.006;2024-02-21T07:45:32;38.30;36.98;40.38;;
41704;Laerm;861;48.808;9.006;2024-02-21T07:47:58;38.42;36.92;39.63;;
41704;Laerm;861;48.808;9.006;2024-02-21T07:50:25;38.41;37.19;39.62;;
41704;Laerm;861;48.808;9.006;2024-02-21T07:52:51;38.42;37.13;39.82;;
41704;Laerm;861;48.808;9.006;2024-02-21T07:55:18;38.42;37.10;39.88;;
41704;Laerm;861;48.808;9.006;2024-02-21T07:57:44;38.45;37.10;39.77;;
41704;Laerm;861;48.808;9.006;2024-02-21T08:00:12;38.44;37.13;39.64;;
41704;Laerm;861;48.808;9.006;2024-02-21T08:02:52;38.45;37.08;39.80;;
41704;Laerm;861;48.808;9.006;2024-02-21T08:05:18;38.48;37.20;39.71;;
41704;Laerm;861;48.808;9.006;2024-02-21T08:07:45;38.48;37.13;39.64;;
41704;Laerm;861;48.808;9.006;2024-02-21T08:10:11;38.45;37.16;39.68;;
41704;Laerm;861;48.808;9.006;2024-02-21T08:12:39;38.45;37.16;39.59;;
41704;Laerm;861;48.808;9.006;2024-02-21T08:15:06;38.45;37.19;39.58;;
41704;Laerm;861;48.808;9.006;2024-02-21T08:17:38;38.47;37.24;39.66;;
41704;Laerm;861;48.808;9.006;2024-02-21T08:20:06;38.48;37.21;39.81;;
41704;Laerm;861;48.808;9.006;2024-02-21T08:22:32;38.48;37.26;39.67;;
41704;Laerm;861;48.808;9.006;2024-02-21T08:24:59;38.48;37.07;39.61;;
41704;Laerm;861;48.808;9.006;2024-02-21T08:27:25;38.48;36.86;39.73;;
41704;Laerm;861;48.808;9.006;2024-02-21T08:29:52;38.52;37.00;42.06;;
41704;Laerm;861;48.808;9.006;2024-02-21T08:32:18;38.48;37.16;40.71;;
41704;Laerm;861;48.808;9.006;2024-02-21T08:34:45;38.48;37.26;39.77;;
41704;Laerm;861;48.808;9.006;2024-02-21T08:37:11;38.47;37.07;39.77;;
41704;Laerm;861;48.808;9.006;2024-02-21T08:39:38;38.47;37.23;39.69;;
41704;Laerm;861;48.808;9.006;2024-02-21T08:42:06;38.48;36.83;39.80;;
41704;Laerm;861;48.808;9.006;2024-02-21T08:44:32;38.45;37.34;39.76;;
41704;Laerm;861;48.808;9.006;2024-02-21T08:46:59;38.47;37.22;39.75;;
41704;Laerm;861;48.808;9.006;2024-02-21T08:49:26;38.45;37.09;39.69;;
41704;Laerm;861;48.808;9.006;2024-02-21T08:51:54;38.42;36.93;39.64;;
41704;Laerm;861;48.808;9.006;2024-02-21T08:54:21;38.45;37.18;39.73;;
41704;Laerm;861;48.808;9.006;2024-02-21T08:56:47;38.47;37.12;39.70;;
41704;Laerm;861;48.808;9.006;2024-02-21T08:59:14;38.46;37.14;39.80;;
41704;Laerm;861;48.808;9.006;2024-02-21T09:01:43;38.44;37.21;39.59;;
41704;Laerm;861;48.808;9.006;2024-02-21T09:04:10;38.43;37.23;39.59;;
41704;Laerm;861;48.808;9.006;2024-02-21T09:06:37;38.42;37.13;39.54;;
41704;Laerm;861;48.808;9.006;2024-02-21T09:09:08;38.41;37.10;39.56;;
41704;Laerm;861;48.808;9.006;2024-02-21T09:11:36;38.44;37.22;39.78;;
41704;Laerm;861;48.808;9.006;2024-02-21T09:14:03;38.43;37.17;39.57;;
41704;Laerm;861;48.808;9.006;2024-02-21T09:16:32;38.43;37.04;39.86;;
41704;Laerm;861;48.808;9.006;2024-02-21T09:18:59;38.44;37.24;39.73;;
41704;Laerm;861;48.808;9.006;2024-02-21T09:21:27;38.42;37.24;39.62;;
41704;Laerm;861;48.808;9.006;2024-02-21T09:23:55;38.39;36.98;39.65;;
41704;Laerm;861;48.808;9.006;2024-02-21T09:26:22;38.37;36.91;39.62;;
41704;Laerm;861;48.808;9.006;2024-02-21T09:28:49;38.36;36.74;39.63;;
41704;Laerm;861;48.808;9.006;2024-02-21T09:31:15;38.33;37.07;39.54;;
41704;Laerm;861;48.808;9.006;2024-02-21T09:33:42;38.32;37.00;39.70;;
41704;Laerm;861;48.808;9.006;2024-02-21T09:36:08;38.31;36.99;40.52;;
41704;Laerm;861;48.808;9.006;2024-02-21T09:38:35;38.30;37.12;39.87;;
41704;Laerm;861;48.808;9.006;2024-02-21T09:41:25;38.28;36.81;39.48;;
41704;Laerm;861;48.808;9.006;2024-02-21T09:43:55;38.26;36.94;39.48;;
41704;Laerm;861;48.808;9.006;2024-02-21T09:47:05;38.27;36.84;39.59;;
41704;Laerm;861;48.808;9.006;2024-02-21T09:49:35;38.24;36.95;39.52;;
41704;Laerm;861;48.808;9.006;2024-02-21T09:52:08;38.25;37.00;39.51;;
41704;Laerm;861;48.808;9.006;2024-02-21T09:54:40;38.24;36.91;39.68;;
41704;Laerm;861;48.808;9.006;2024-02-21T09:57:13;38.23;36.91;39.56;;
41704;Laerm;861;48.808;9.006;2024-02-21T09:59:40;38.18;36.77;39.58;;
41704;Laerm;861;48.808;9.006;2024-02-21T10:02:08;38.20;37.01;39.59;;
41704;Laerm;861;48.808;9.006;2024-02-21T10:04:35;38.18;36.87;39.32;;
41704;Laerm;861;48.808;9.006;2024-02-21T10:07:02;38.22;36.83;44.73;;
41704;Laerm;861;48.808;9.006;2024-02-21T10:09:30;38.11;36.80;39.35;;
41704;Laerm;861;48.808;9.006;2024-02-21T10:12:09;38.12;36.48;42.50;;
41704;Laerm;861;48.808;9.006;2024-02-21T10:14:37;38.08;36.88;39.43;;
41704;Laerm;861;48.808;9.006;2024-02-21T10:17:04;38.09;36.63;39.43;;
41704;Laerm;861;48.808;9.006;2024-02-21T10:19:36;38.11;36.75;39.29;;
41704;Laerm;861;48.808;9.006;2024-02-21T10:22:07;38.10;36.69;39.48;;
41704;Laerm;861;48.808;9.006;2024-02-21T10:24:36;38.11;36.54;40.05;;
41704;Laerm;861;48.808;9.006;2024-02-21T10:27:09;38.21;36.78;45.10;;
41704;Laerm;861;48.808;9.006;2024-02-21T10:29:39;38.11;36.88;40.35;;
41704;Laerm;861;48.808;9.006;2024-02-21T10:32:12;38.11;36.79;39.31;;
41704;Laerm;861;48.808;9.006;2024-02-21T10:34:42;38.14;36.79;41.87;;
41704;Laerm;861;48.808;9.006;2024-02-21T10:37:11;38.06;36.74;39.27;;
41704;Laerm;861;48.808;9.006;2024-02-21T10:39:41;38.07;36.74;39.63;;
41704;Laerm;861;48.808;9.006;2024-02-21T10:42:13;38.08;36.54;42.71;;
41704;Laerm;861;48.808;9.006;2024-02-21T10:44:41;38.14;36.58;44.17;;
41704;Laerm;861;48.808;9.006;2024-02-21T10:47:11;38.03;36.74;39.32;;
41704;Laerm;861;48.808;9.006;2024-02-21T10:49:46;38.01;36.58;39.30;;
41704;Laerm;861;48.808;9.006;2024-02-21T10:53:08;38.00;36.64;39.55;;
41704;Laerm;861;48.808;9.006;2024-02-21T10:56:06;37.99;36.69;39.53;;
41704;Laerm;861;48.808;9.006;2024-02-21T10:58:39;38.01;36.53;39.39;;
41704;Laerm;861;48.808;9.006;2024-02-21T11:01:07;37.99;36.67;40.28;;
41704;Laerm;861;48.808;9.006;2024-02-21T11:03:34;37.98;36.61;39.33;;
41704;Laerm;861;48.808;9.006;2024-02-21T11:06:04;37.91;36.66;39.30;;
41704;Laerm;861;48.808;9.006;2024-02-21T11:08:31;37.95;36.54;39.19;;
41704;Laerm;861;48.808;9.006;2024-02-21T11:11:00;37.92;36.58;39.53;;
41704;Laerm;861;48.808;9.006;2024-02-21T11:13:36;37.89;36.60;39.37;;
41704;Laerm;861;48.808;9.006;2024-02-21T11:16:22;37.92;36.62;39.23;;
41704;Laerm;861;48.808;9.006;2024-02-21T11:18:48;37.96;36.49;39.53;;
41704;Laerm;861;48.808;9.006;2024-02-21T11:21:16;37.93;36.47;39.28;;
41704;Laerm;861;48.808;9.006;2024-02-21T11:23:43;37.92;36.74;39.21;;
41704;Laerm;861;48.808;9.006;2024-02-21T11:26:20;37.93;36.54;39.26;;
41704;Laerm;861;48.808;9.006;2024-02-21T11:29:01;37.85;36.31;39.20;;
41704;Laerm;861;48.808;9.006;2024-02-21T11:31:45;37.82;36.42;39.04;;
41704;Laerm;861;48.808;9.006;2024-02-21T11:34:13;37.89;36.44;39.55;;
41704;Laerm;861;48.808;9.006;2024-02-21T11:36:51;37.83;36.27;39.24;;
41704;Laerm;861;48.808;9.006;2024-02-21T11:39:22;37.82;36.31;38.97;;
41704;Laerm;861;48.808;9.006;2024-02-21T11:42:06;37.85;36.18;39.03;;
41704;Laerm;861;48.808;9.006;2024-02-21T11:44:38;37.83;36.45;39.34;;
41704;Laerm;861;48.808;9.006;2024-02-21T11:47:09;37.82;36.41;39.05;;
41704;Laerm;861;48.808;9.006;2024-02-21T11:49:45;37.83;36.46;39.05;;
41704;Laerm;861;48.808;9.006;2024-02-21T11:52:13;37.80;36.38;39.25;;
41704;Laerm;861;48.808;9.006;2024-02-21T11:54:42;37.80;36.55;39.04;;
41704;Laerm;861;48.808;9.006;2024-02-21T11:57:10;37.78;36.21;39.06;;
41704;Laerm;861;48.808;9.006;2024-02-21T11:59:40;37.72;36.39;39.01;;
41704;Laerm;861;48.808;9.006;2024-02-21T12:02:08;37.74;36.32;39.72;;
41704;Laerm;861;48.808;9.006;2024-02-21T12:04:36;37.69;36.37;38.93;;
41704;Laerm;861;48.808;9.006;2024-02-21T12:07:04;37.66;36.30;38.99;;
41704;Laerm;861;48.808;9.006;2024-02-21T12:09:33;37.67;36.17;39.87;;
41704;Laerm;861;48.808;9.006;2024-02-21T12:12:06;37.62;36.02;38.96;;
41704;Laerm;861;48.808;9.006;2024-02-21T12:14:35;37.58;35.91;38.88;;
41704;Laerm;861;48.808;9.006;2024-02-21T12:17:04;37.61;36.34;39.22;;
41704;Laerm;861;48.808;9.006;2024-02-21T12:19:32;37.51;36.11;38.80;;
41704;Laerm;861;48.808;9.006;2024-02-21T12:22:02;37.52;36.20;39.83;;
41704;Laerm;861;48.808;9.006;2024-02-21T12:24:32;37.50;36.13;38.72;;
41704;Laerm;861;48.808;9.006;2024-02-21T12:26:58;37.49;36.22;39.16;;
41704;Laerm;861;48.808;9.006;2024-02-21T12:29:26;37.53;36.24;38.76;;
41704;Laerm;861;48.808;9.006;2024-02-21T12:31:53;37.55;36.13;38.89;;
41704;Laerm;861;48.808;9.006;2024-02-21T12:34:24;37.51;36.06;38.70;;
41704;Laerm;861;48.808;9.006;2024-02-21T12:36:51;37.53;36.16;38.92;;
41704;Laerm;861;48.808;9.006;2024-02-21T12:39:18;37.52;36.05;39.03;;
41704;Laerm;861;48.808;9.006;2024-02-21T12:41:44;37.40;35.86;38.60;;
41704;Laerm;861;48.808;9.006;2024-02-21T12:44:12;37.42;35.84;38.77;;
41704;Laerm;861;48.808;9.006;2024-02-21T12:46:40;37.44;36.18;38.80;;
41704;Laerm;861;48.808;9.006;2024-02-21T12:49:07;37.39;35.92;39.23;;
41704;Laerm;861;48.808;9.006;2024-02-21T12:51:35;37.36;36.09;38.66;;
41704;Laerm;861;48.808;9.006;2024-02-21T12:54:02;37.38;36.01;38.81;;
41704;Laerm;861;48.808;9.006;2024-02-21T12:56:31;37.39;35.94;38.57;;
41704;Laerm;861;48.808;9.006;2024-02-21T12:58:59;37.35;36.06;38.86;;
41704;Laerm;861;48.808;9.006;2024-02-21T13:01:26;37.35;36.01;38.73;;
41704;Laerm;861;48.808;9.006;2024-02-21T13:03:53;37.38;36.07;38.63;;
41704;Laerm;861;48.808;9.006;2024-02-21T13:06:20;37.30;35.77;38.67;;
41704;Laerm;861;48.808;9.006;2024-02-21T13:08:47;37.37;36.07;38.76;;
41704;Laerm;861;48.808;9.006;2024-02-21T13:11:14;37.38;36.01;38.60;;
41704;Laerm;861;48.808;9.006;2024-02-21T13:13:40;37.39;36.02;42.86;;
41704;Laerm;861;48.808;9.006;2024-02-21T13:16:07;37.26;35.83;38.95;;
41704;Laerm;861;48.808;9.006;2024-02-21T13:18:36;37.26;35.89;38.55;;
41704;Laerm;861;48.808;9.006;2024-02-21T13:21:05;37.24;35.74;38.47;;
41704;Laerm;861;48.808;9.006;2024-02-21T13:23:33;37.27;35.89;38.64;;
41704;Laerm;861;48.808;9.006;2024-02-21T13:25:59;37.32;35.78;47.87;;
41704;Laerm;861;48.808;9.006;2024-02-21T13:28:26;37.28;35.80;38.81;;
41704;Laerm;861;48.808;9.006;2024-02-21T13:30:53;37.26;35.77;38.57;;
41704;Laerm;861;48.808;9.006;2024-02-21T13:33:19;37.28;35.84;38.56;;
41704;Laerm;861;48.808;9.006;2024-02-21T13:35:46;37.28;35.80;39.08;;
41704;Laerm;861;48.808;9.006;2024-02-21T13:38:13;37.32;35.91;43.29;;
41704;Laerm;861;48.808;9.006;2024-02-21T13:40:41;37.23;35.78;39.93;;
41704;Laerm;861;48.808;9.006;2024-02-21T13:43:08;37.24;35.76;38.50;;
41704;Laerm;861;48.808;9.006;2024-02-21T13:45:35;37.25;35.79;42.41;;
41704;Laerm;861;48.808;9.006;2024-02-21T13:48:02;37.25;35.70;38.56;;
41704;Laerm;861;48.808;9.006;2024-02-21T13:50:33;37.26;35.98;38.64;;
41704;Laerm;861;48.808;9.006;2024-02-21T13:53:10;37.18;35.76;38.34;;
41704;Laerm;861;48.808;9.006;2024-02-21T13:55:37;37.18;35.57;41.97;;
41704;Laerm;861;48.808;9.006;2024-02-21T13:58:04;37.15;35.85;38.43;;
41704;Laerm;861;48.808;9.006;2024-02-21T14:00:31;37.18;35.79;38.45;;
41704;Laerm;861;48.808;9.006;2024-02-21T14:03:00;37.10;35.83;38.58;;
41704;Laerm;861;48.808;9.006;2024-02-21T14:05:27;37.04;35.69;38.50;;
41704;Laerm;861;48.808;9.006;2024-02-21T14:07:54;37.07;35.57;38.46;;
41704;Laerm;861;48.808;9.006;2024-02-21T14:10:24;36.97;35.50;39.67;;
41704;Laerm;861;48.808;9.006;2024-02-21T14:12:50;36.88;35.46;40.79;;
41704;Laerm;861;48.808;9.006;2024-02-21T14:15:17;36.79;35.28;42.21;;